sensor_id;sensor_type;location;lat;lon;timestamp;P1;durP1;ratioP1;P2;durP2;ratioP2
8007;SDS011;4049;49.468;11.200;2023-11-21T00:01:02;3.37;;;1.20;;
8007;SDS011;4049;49.468;11.200;2023-11-21T00:03:29;2.80;;;1.70;;
8007;SDS011;4049;49.468;11.200;2023-11-21T00:05:58;2.43;;;1.50;;
8007;SDS011;4049;49.468;11.200;2023-11-21T00:08:25;3.90;;;1.30;;
8007;SDS011;4049;49.468;11.200;2023-11-21T00:10:52;2.33;;;1.30;;
8007;SDS011;4049;49.468;11.200;2023-11-21T00:13:20;2.73;;;1.40;;
8007;SDS011;4049;49.468;11.200;2023-11-21T00:15:46;2.20;;;1.43;;
8007;SDS011;4049;49.468;11.200;2023-11-21T00:18:14;3.97;;;1.70;;
8007;SDS011;4049;49.468;11.200;2023-11-21T00:20:41;3.27;;;1.40;;
8007;SDS011;4049;49.468;11.200;2023-11-21T00:23:09;3.67;;;1.20;;
8007;SDS011;4049;49.468;11.200;2023-11-21T00:25:36;3.30;;;1.60;;
8007;SDS011;4049;49.468;11.200;2023-11-21T00:28:03;5.07;;;1.70;;
8007;SDS011;4049;49.468;11.200;2023-11-21T00:30:31;3.43;;;1.20;;
8007;SDS011;4049;49.468;11.200;2023-11-21T00:32:58;3.17;;;1.30;;
8007;SDS011;4049;49.468;11.200;2023-11-21T00:35:25;1.60;;;1.20;;
8007;SDS011;4049;49.468;11.200;2023-11-21T00:37:51;2.60;;;1.23;;
8007;SDS011;4049;49.468;11.200;2023-11-21T00:40:20;3.33;;;1.33;;
8007;SDS011;4049;49.468;11.200;2023-11-21T00:42:47;3.00;;;1.20;;
8007;SDS011;4049;49.468;11.200;2023-11-21T00:45:14;1.70;;;1.23;;
8007;SDS011;4049;49.468;11.200;2023-11-21T00:47:41;1.93;;;1.40;;
8007;SDS011;4049;49.468;11.200;2023-11-21T00:50:08;1.43;;;1.33;;
8007;SDS011;4049;49.468;11.200;2023-11-21T00:52:35;2.30;;;1.27;;
8007;SDS011;4049;49.468;11.200;2023-11-21T00:55:02;1.60;;;1.13;;
8007;SDS011;4049;49.468;11.200;2023-11-21T00:57:31;1.60;;;1.23;;
8007;SDS011;4049;49.468;11.200;2023-11-21T00:59:58;1.93;;;1.27;;
8007;SDS011;4049;49.468;11.200;2023-11-21T01:02:25;2.10;;;1.50;;
8007;SDS011;4049;49.468;11.200;2023-11-21T01:04:52;3.20;;;1.40;;
8007;SDS011;4049;49.468;11.200;2023-11-21T01:07:18;1.57;;;1.20;;
8007;SDS011;4049;49.468;11.200;2023-11-21T01:09:45;3.70;;;1.40;;
8007;SDS011;4049;49.468;11.200;2023-11-21T01:12:12;1.70;;;1.30;;
8007;SDS011;4049;49.468;11.200;2023-11-21T01:14:40;3.90;;;1.40;;
8007;SDS011;4049;49.468;11.200;2023-11-21T01:17:07;1.60;;;1.50;;
8007;SDS011;4049;49.468;11.200;2023-11-21T01:19:34;2.50;;;1.50;;
8007;SDS011;4049;49.468;11.200;2023-11-21T01:22:01;3.53;;;1.37;;
8007;SDS011;4049;49.468;11.200;2023-11-21T01:24:28;3.47;;;1.63;;
8007;SDS011;4049;49.468;11.200;2023-11-21T01:26:55;2.70;;;1.63;;
8007;SDS011;4049;49.468;11.200;2023-11-21T01:29:22;3.37;;;1.50;;
8007;SDS011;4049;49.468;11.200;2023-11-21T01:31:50;2.80;;;1.77;;
8007;SDS011;4049;49.468;11.200;2023-11-21T01:34:17;4.17;;;1.60;;
8007;SDS011;4049;49.468;11.200;2023-11-21T01:36:45;2.10;;;1.67;;
8007;SDS011;4049;49.468;11.200;2023-11-21T01:39:13;3.50;;;1.60;;
8007;SDS011;4049;49.468;11.200;2023-11-21T01:41:41;2.60;;;1.60;;
8007;SDS011;4049;49.468;11.200;2023-11-21T01:44:09;2.27;;;1.50;;
8007;SDS011;4049;49.468;11.200;2023-11-21T01:46:36;2.07;;;1.80;;
8007;SDS011;4049;49.468;11.200;2023-11-21T01:49:04;2.40;;;1.80;;
8007;SDS011;4049;49.468;11.200;2023-11-21T01:51:32;3.10;;;1.70;;
8007;SDS011;4049;49.468;11.200;2023-11-21T01:53:59;2.83;;;1.90;;
8007;SDS011;4049;49.468;11.200;2023-11-21T01:56:26;5.63;;;2.03;;
8007;SDS011;4049;49.468;11.200;2023-11-21T01:58:53;2.67;;;1.60;;
8007;SDS011;4049;49.468;11.200;2023-11-21T02:01:20;4.80;;;1.70;;
8007;SDS011;4049;49.468;11.200;2023-11-21T02:03:47;4.07;;;1.70;;
8007;SDS011;4049;49.468;11.200;2023-11-21T02:06:15;3.20;;;1.57;;
8007;SDS011;4049;49.468;11.200;2023-11-21T02:08:42;2.50;;;1.60;;
8007;SDS011;4049;49.468;11.200;2023-11-21T02:11:09;2.50;;;1.73;;
8007;SDS011;4049;49.468;11.200;2023-11-21T02:13:38;3.50;;;1.50;;
8007;SDS011;4049;49.468;11.200;2023-11-21T02:16:07;3.33;;;1.40;;
8007;SDS011;4049;49.468;11.200;2023-11-21T02:18:34;2.83;;;1.33;;
8007;SDS011;4049;49.468;11.200;2023-11-21T02:21:03;2.03;;;1.40;;
8007;SDS011;4049;49.468;11.200;2023-11-21T02:23:32;1.77;;;1.40;;
8007;SDS011;4049;49.468;11.200;2023-11-21T02:25:59;2.37;;;1.40;;
8007;SDS011;4049;49.468;11.200;2023-11-21T02:28:29;1.30;;;1.20;;
8007;SDS011;4049;49.468;11.200;2023-11-21T02:30:56;2.93;;;1.60;;
8007;SDS011;4049;49.468;11.200;2023-11-21T02:33:24;2.20;;;1.40;;
8007;SDS011;4049;49.468;11.200;2023-11-21T02:35:51;4.37;;;1.83;;
8007;SDS011;4049;49.468;11.200;2023-11-21T02:38:19;2.10;;;1.50;;
8007;SDS011;4049;49.468;11.200;2023-11-21T02:40:48;3.10;;;1.60;;
8007;SDS011;4049;49.468;11.200;2023-11-21T02:43:15;3.13;;;1.50;;
8007;SDS011;4049;49.468;11.200;2023-11-21T02:45:42;2.10;;;1.30;;
8007;SDS011;4049;49.468;11.200;2023-11-21T02:48:08;2.00;;;1.20;;
8007;SDS011;4049;49.468;11.200;2023-11-21T02:50:35;2.83;;;1.40;;
8007;SDS011;4049;49.468;11.200;2023-11-21T02:53:02;2.30;;;1.47;;
8007;SDS011;4049;49.468;11.200;2023-11-21T02:55:30;1.77;;;1.20;;
8007;SDS011;4049;49.468;11.200;2023-11-21T02:58:01;1.77;;;1.37;;
8007;SDS011;4049;49.468;11.200;2023-11-21T03:00:28;1.67;;;1.40;;
8007;SDS011;4049;49.468;11.200;2023-11-21T03:02:55;2.03;;;1.30;;
8007;SDS011;4049;49.468;11.200;2023-11-21T03:05:22;2.17;;;1.50;;
8007;SDS011;4049;49.468;11.200;2023-11-21T03:07:49;2.20;;;1.30;;
8007;SDS011;4049;49.468;11.200;2023-11-21T03:10:16;2.83;;;1.33;;
8007;SDS011;4049;49.468;11.200;2023-11-21T03:12:42;1.43;;;1.20;;
8007;SDS011;4049;49.468;11.200;2023-11-21T03:15:11;2.47;;;1.50;;
8007;SDS011;4049;49.468;11.200;2023-11-21T03:17:38;1.83;;;1.43;;
8007;SDS011;4049;49.468;11.200;2023-11-21T03:20:06;2.13;;;1.47;;
8007;SDS011;4049;49.468;11.200;2023-11-21T03:22:35;3.73;;;1.87;;
8007;SDS011;4049;49.468;11.200;2023-11-21T03:25:03;3.10;;;1.43;;
8007;SDS011;4049;49.468;11.200;2023-11-21T03:27:30;3.83;;;1.50;;
8007;SDS011;4049;49.468;11.200;2023-11-21T03:29:58;3.17;;;2.00;;
8007;SDS011;4049;49.468;11.200;2023-11-21T03:32:26;2.13;;;1.60;;
8007;SDS011;4049;49.468;11.200;2023-11-21T03:34:53;2.87;;;1.80;;
8007;SDS011;4049;49.468;11.200;2023-11-21T03:37:21;4.07;;;1.70;;
8007;SDS011;4049;49.468;11.200;2023-11-21T03:39:48;2.10;;;1.70;;
8007;SDS011;4049;49.468;11.200;2023-11-21T03:42:15;4.70;;;2.03;;
8007;SDS011;4049;49.468;11.200;2023-11-21T03:44:42;2.87;;;1.87;;
8007;SDS011;4049;49.468;11.200;2023-11-21T03:47:09;3.43;;;1.87;;
8007;SDS011;4049;49.468;11.200;2023-11-21T03:49:37;3.53;;;1.90;;
8007;SDS011;4049;49.468;11.200;2023-11-21T03:52:04;4.90;;;1.83;;
8007;SDS011;4049;49.468;11.200;2023-11-21T03:54:32;2.60;;;1.80;;
8007;SDS011;4049;49.468;11.200;2023-11-21T03:56:59;3.90;;;1.80;;
8007;SDS011;4049;49.468;11.200;2023-11-21T03:59:26;3.37;;;1.90;;
8007;SDS011;4049;49.468;11.200;2023-11-21T04:01:54;3.90;;;1.90;;
8007;SDS011;4049;49.468;11.200;2023-11-21T04:04:22;3.20;;;2.10;;
8007;SDS011;4049;49.468;11.200;2023-11-21T04:06:50;2.53;;;1.70;;
8007;SDS011;4049;49.468;11.200;2023-11-21T04:09:18;2.53;;;1.50;;
8007;SDS011;4049;49.468;11.200;2023-11-21T04:11:45;2.57;;;1.70;;
8007;SDS011;4049;49.468;11.200;2023-11-21T04:14:13;2.70;;;1.80;;
8007;SDS011;4049;49.468;11.200;2023-11-21T04:16:40;4.57;;;2.10;;
8007;SDS011;4049;49.468;11.200;2023-11-21T04:19:07;3.63;;;1.97;;
8007;SDS011;4049;49.468;11.200;2023-11-21T04:21:35;2.63;;;1.70;;
8007;SDS011;4049;49.468;11.200;2023-11-21T04:24:03;3.53;;;1.93;;
8007;SDS011;4049;49.468;11.200;2023-11-21T04:26:31;2.90;;;2.10;;
8007;SDS011;4049;49.468;11.200;2023-11-21T04:28:58;3.87;;;1.90;;
8007;SDS011;4049;49.468;11.200;2023-11-21T04:31:24;3.23;;;1.70;;
8007;SDS011;4049;49.468;11.200;2023-11-21T04:33:51;3.67;;;1.90;;
8007;SDS011;4049;49.468;11.200;2023-11-21T04:36:18;4.97;;;1.90;;
8007;SDS011;4049;49.468;11.200;2023-11-21T04:38:45;2.93;;;1.70;;
8007;SDS011;4049;49.468;11.200;2023-11-21T04:41:14;2.13;;;1.83;;
8007;SDS011;4049;49.468;11.200;2023-11-21T04:43:40;3.67;;;1.80;;
8007;SDS011;4049;49.468;11.200;2023-11-21T04:46:08;5.77;;;1.90;;
8007;SDS011;4049;49.468;11.200;2023-11-21T04:48:35;3.37;;;1.83;;
8007;SDS011;4049;49.468;11.200;2023-11-21T04:51:02;6.50;;;2.30;;
8007;SDS011;4049;49.468;11.200;2023-11-21T04:53:30;6.73;;;2.20;;
8007;SDS011;4049;49.468;11.200;2023-11-21T04:55:57;3.90;;;2.20;;
8007;SDS011;4049;49.468;11.200;2023-11-21T04:58:25;3.03;;;2.00;;
8007;SDS011;4049;49.468;11.200;2023-11-21T05:00:52;2.40;;;1.90;;
8007;SDS011;4049;49.468;11.200;2023-11-21T05:03:19;4.10;;;2.10;;
8007;SDS011;4049;49.468;11.200;2023-11-21T05:05:45;2.57;;;1.90;;
8007;SDS011;4049;49.468;11.200;2023-11-21T05:08:12;3.23;;;2.10;;
8007;SDS011;4049;49.468;11.200;2023-11-21T05:10:39;5.10;;;2.00;;
8007;SDS011;4049;49.468;11.200;2023-11-21T05:13:06;3.73;;;1.80;;
8007;SDS011;4049;49.468;11.200;2023-11-21T05:15:38;4.80;;;2.07;;
8007;SDS011;4049;49.468;11.200;2023-11-21T05:18:04;5.90;;;1.83;;
8007;SDS011;4049;49.468;11.200;2023-11-21T05:20:31;6.60;;;1.97;;
8007;SDS011;4049;49.468;11.200;2023-11-21T05:22:58;3.07;;;2.10;;
8007;SDS011;4049;49.468;11.200;2023-11-21T05:25:25;3.97;;;1.93;;
8007;SDS011;4049;49.468;11.200;2023-11-21T05:27:52;3.37;;;2.10;;
8007;SDS011;4049;49.468;11.200;2023-11-21T05:30:19;3.00;;;2.07;;
8007;SDS011;4049;49.468;11.200;2023-11-21T05:32:48;4.13;;;2.30;;
8007;SDS011;4049;49.468;11.200;2023-11-21T05:35:15;3.10;;;2.20;;
8007;SDS011;4049;49.468;11.200;2023-11-21T05:37:42;5.83;;;2.17;;
8007;SDS011;4049;49.468;11.200;2023-11-21T05:40:10;5.17;;;2.50;;
8007;SDS011;4049;49.468;11.200;2023-11-21T05:42:38;4.80;;;2.40;;
8007;SDS011;4049;49.468;11.200;2023-11-21T05:45:06;2.93;;;2.00;;
8007;SDS011;4049;49.468;11.200;2023-11-21T05:50:20;4.40;;;2.07;;
8007;SDS011;4049;49.468;11.200;2023-11-21T05:52:48;3.20;;;2.77;;
8007;SDS011;4049;49.468;11.200;2023-11-21T05:55:15;3.63;;;2.50;;
8007;SDS011;4049;49.468;11.200;2023-11-21T05:57:42;4.30;;;2.20;;
8007;SDS011;4049;49.468;11.200;2023-11-21T06:00:11;4.53;;;2.67;;
8007;SDS011;4049;49.468;11.200;2023-11-21T06:02:45;4.77;;;2.60;;
8007;SDS011;4049;49.468;11.200;2023-11-21T06:05:13;4.00;;;2.70;;
8007;SDS011;4049;49.468;11.200;2023-11-21T06:07:40;4.43;;;2.23;;
8007;SDS011;4049;49.468;11.200;2023-11-21T06:10:07;4.60;;;2.50;;
8007;SDS011;4049;49.468;11.200;2023-11-21T06:12:36;5.40;;;2.60;;
8007;SDS011;4049;49.468;11.200;2023-11-21T06:15:03;4.87;;;2.67;;
8007;SDS011;4049;49.468;11.200;2023-11-21T06:17:32;6.90;;;3.67;;
8007;SDS011;4049;49.468;11.200;2023-11-21T06:20:01;2.50;;;2.27;;
8007;SDS011;4049;49.468;11.200;2023-11-21T06:22:35;5.27;;;2.97;;
8007;SDS011;4049;49.468;11.200;2023-11-21T06:25:02;5.60;;;3.00;;
8007;SDS011;4049;49.468;11.200;2023-11-21T06:27:33;4.67;;;3.37;;
8007;SDS011;4049;49.468;11.200;2023-11-21T06:30:01;4.07;;;2.90;;
8007;SDS011;4049;49.468;11.200;2023-11-21T06:32:28;5.20;;;3.40;;
8007;SDS011;4049;49.468;11.200;2023-11-21T06:34:56;5.57;;;3.63;;
8007;SDS011;4049;49.468;11.200;2023-11-21T06:37:24;6.77;;;3.10;;
8007;SDS011;4049;49.468;11.200;2023-11-21T06:39:53;4.30;;;2.60;;
8007;SDS011;4049;49.468;11.200;2023-11-21T06:42:21;4.37;;;2.73;;
8007;SDS011;4049;49.468;11.200;2023-11-21T06:44:49;4.80;;;2.87;;
8007;SDS011;4049;49.468;11.200;2023-11-21T06:47:16;4.87;;;3.07;;
8007;SDS011;4049;49.468;11.200;2023-11-21T06:49:45;5.23;;;3.07;;
8007;SDS011;4049;49.468;11.200;2023-11-21T06:52:14;6.13;;;4.20;;
8007;SDS011;4049;49.468;11.200;2023-11-21T06:54:41;8.47;;;4.97;;
8007;SDS011;4049;49.468;11.200;2023-11-21T06:57:10;18.57;;;9.60;;
8007;SDS011;4049;49.468;11.200;2023-11-21T06:59:37;16.57;;;10.77;;
8007;SDS011;4049;49.468;11.200;2023-11-21T07:02:04;14.53;;;6.83;;
8007;SDS011;4049;49.468;11.200;2023-11-21T07:04:31;7.97;;;5.53;;
8007;SDS011;4049;49.468;11.200;2023-11-21T07:06:58;7.03;;;4.80;;
8007;SDS011;4049;49.468;11.200;2023-11-21T07:09:25;5.47;;;4.23;;
8007;SDS011;4049;49.468;11.200;2023-11-21T07:11:52;6.70;;;4.50;;
8007;SDS011;4049;49.468;11.200;2023-11-21T07:14:21;7.33;;;4.00;;
8007;SDS011;4049;49.468;11.200;2023-11-21T07:16:48;4.70;;;3.70;;
8007;SDS011;4049;49.468;11.200;2023-11-21T07:19:17;5.30;;;3.33;;
8007;SDS011;4049;49.468;11.200;2023-11-21T07:21:56;4.77;;;3.50;;
8007;SDS011;4049;49.468;11.200;2023-11-21T07:24:23;6.20;;;3.73;;
8007;SDS011;4049;49.468;11.200;2023-11-21T07:26:50;5.20;;;3.30;;
8007;SDS011;4049;49.468;11.200;2023-11-21T07:29:23;4.33;;;2.97;;
8007;SDS011;4049;49.468;11.200;2023-11-21T07:31:51;7.17;;;3.43;;
8007;SDS011;4049;49.468;11.200;2023-11-21T07:34:18;5.73;;;3.80;;
8007;SDS011;4049;49.468;11.200;2023-11-21T07:36:45;6.50;;;3.67;;
8007;SDS011;4049;49.468;11.200;2023-11-21T07:39:15;6.10;;;3.50;;
8007;SDS011;4049;49.468;11.200;2023-11-21T07:41:42;4.40;;;3.60;;
8007;SDS011;4049;49.468;11.200;2023-11-21T07:44:14;4.27;;;3.10;;
8007;SDS011;4049;49.468;11.200;2023-11-21T07:46:43;4.27;;;3.07;;
8007;SDS011;4049;49.468;11.200;2023-11-21T07:49:10;5.93;;;3.63;;
8007;SDS011;4049;49.468;11.200;2023-11-21T07:51:40;5.37;;;3.23;;
8007;SDS011;4049;49.468;11.200;2023-11-21T07:54:06;7.13;;;3.27;;
8007;SDS011;4049;49.468;11.200;2023-11-21T07:56:33;7.67;;;3.67;;
8007;SDS011;4049;49.468;11.200;2023-11-21T07:59:02;5.80;;;3.50;;
8007;SDS011;4049;49.468;11.200;2023-11-21T08:01:29;4.80;;;3.47;;
8007;SDS011;4049;49.468;11.200;2023-11-21T08:04:03;7.03;;;3.53;;
8007;SDS011;4049;49.468;11.200;2023-11-21T08:06:31;6.93;;;3.67;;
8007;SDS011;4049;49.468;11.200;2023-11-21T08:08:59;4.80;;;3.23;;
8007;SDS011;4049;49.468;11.200;2023-11-21T08:11:26;9.83;;;3.90;;
8007;SDS011;4049;49.468;11.200;2023-11-21T08:13:58;4.53;;;3.53;;
8007;SDS011;4049;49.468;11.200;2023-11-21T08:16:25;4.60;;;3.60;;
8007;SDS011;4049;49.468;11.200;2023-11-21T08:18:53;4.37;;;3.60;;
8007;SDS011;4049;49.468;11.200;2023-11-21T08:21:22;6.63;;;3.73;;
8007;SDS011;4049;49.468;11.200;2023-11-21T08:23:49;7.40;;;3.70;;
8007;SDS011;4049;49.468;11.200;2023-11-21T08:26:19;6.67;;;3.33;;
8007;SDS011;4049;49.468;11.200;2023-11-21T08:28:46;6.43;;;3.60;;
8007;SDS011;4049;49.468;11.200;2023-11-21T08:31:13;4.80;;;3.60;;
8007;SDS011;4049;49.468;11.200;2023-11-21T08:33:40;7.43;;;4.30;;
8007;SDS011;4049;49.468;11.200;2023-11-21T08:36:07;5.43;;;3.60;;
8007;SDS011;4049;49.468;11.200;2023-11-21T08:38:37;6.77;;;4.30;;
8007;SDS011;4049;49.468;11.200;2023-11-21T08:41:07;5.70;;;4.30;;
8007;SDS011;4049;49.468;11.200;2023-11-21T08:43:34;5.73;;;3.73;;
8007;SDS011;4049;49.468;11.200;2023-11-21T08:46:13;5.63;;;4.07;;
8007;SDS011;4049;49.468;11.200;2023-11-21T08:48:40;6.30;;;3.63;;
8007;SDS011;4049;49.468;11.200;2023-11-21T08:51:09;8.60;;;4.93;;
8007;SDS011;4049;49.468;11.200;2023-11-21T08:53:39;6.77;;;4.90;;
8007;SDS011;4049;49.468;11.200;2023-11-21T08:56:06;5.63;;;3.80;;
8007;SDS011;4049;49.468;11.200;2023-11-21T08:58:35;7.83;;;4.00;;
8007;SDS011;4049;49.468;11.200;2023-11-21T09:01:04;8.10;;;4.73;;
8007;SDS011;4049;49.468;11.200;2023-11-21T09:03:32;6.83;;;4.47;;
8007;SDS011;4049;49.468;11.200;2023-11-21T09:06:00;8.53;;;5.07;;
8007;SDS011;4049;49.468;11.200;2023-11-21T09:08:28;9.30;;;5.03;;
8007;SDS011;4049;49.468;11.200;2023-11-21T09:10:57;8.50;;;5.30;;
8007;SDS011;4049;49.468;11.200;2023-11-21T09:13:27;7.60;;;4.50;;
8007;SDS011;4049;49.468;11.200;2023-11-21T09:15:54;8.10;;;4.50;;
8007;SDS011;4049;49.468;11.200;2023-11-21T09:18:21;6.67;;;4.70;;
8007;SDS011;4049;49.468;11.200;2023-11-21T09:20:48;6.10;;;4.67;;
8007;SDS011;4049;49.468;11.200;2023-11-21T09:23:15;5.70;;;4.03;;
8007;SDS011;4049;49.468;11.200;2023-11-21T09:25:42;7.33;;;5.07;;
8007;SDS011;4049;49.468;11.200;2023-11-21T09:28:12;6.70;;;4.70;;
8007;SDS011;4049;49.468;11.200;2023-11-21T09:30:39;9.93;;;5.30;;
8007;SDS011;4049;49.468;11.200;2023-11-21T09:33:06;8.00;;;4.97;;
8007;SDS011;4049;49.468;11.200;2023-11-21T09:35:35;8.80;;;5.73;;
8007;SDS011;4049;49.468;11.200;2023-11-21T09:38:03;8.80;;;5.00;;
8007;SDS011;4049;49.468;11.200;2023-11-21T09:40:35;6.97;;;4.83;;
8007;SDS011;4049;49.468;11.200;2023-11-21T09:43:04;7.50;;;5.00;;
8007;SDS011;4049;49.468;11.200;2023-11-21T09:45:35;11.67;;;5.27;;
8007;SDS011;4049;49.468;11.200;2023-11-21T09:48:04;8.20;;;5.20;;
8007;SDS011;4049;49.468;11.200;2023-11-21T09:50:31;7.97;;;4.90;;
8007;SDS011;4049;49.468;11.200;2023-11-21T09:53:02;6.80;;;5.23;;
8007;SDS011;4049;49.468;11.200;2023-11-21T09:55:39;8.17;;;5.30;;
8007;SDS011;4049;49.468;11.200;2023-11-21T09:58:09;7.73;;;4.73;;
8007;SDS011;4049;49.468;11.200;2023-11-21T10:00:41;7.77;;;5.10;;
8007;SDS011;4049;49.468;11.200;2023-11-21T10:03:08;6.03;;;4.37;;
8007;SDS011;4049;49.468;11.200;2023-11-21T10:05:36;5.53;;;4.50;;
8007;SDS011;4049;49.468;11.200;2023-11-21T10:08:04;4.43;;;3.43;;
8007;SDS011;4049;49.468;11.200;2023-11-21T10:10:42;5.93;;;4.40;;
8007;SDS011;4049;49.468;11.200;2023-11-21T10:13:11;5.50;;;4.17;;
8007;SDS011;4049;49.468;11.200;2023-11-21T10:15:43;4.40;;;3.83;;
8007;SDS011;4049;49.468;11.200;2023-11-21T10:18:13;5.87;;;3.90;;
8007;SDS011;4049;49.468;11.200;2023-11-21T10:20:41;5.70;;;4.13;;
8007;SDS011;4049;49.468;11.200;2023-11-21T10:23:17;6.17;;;4.07;;
8007;SDS011;4049;49.468;11.200;2023-11-21T10:25:46;6.17;;;3.87;;
8007;SDS011;4049;49.468;11.200;2023-11-21T10:28:13;8.23;;;4.00;;
8007;SDS011;4049;49.468;11.200;2023-11-21T10:30:40;5.97;;;4.43;;
8007;SDS011;4049;49.468;11.200;2023-11-21T10:33:09;5.33;;;4.10;;
8007;SDS011;4049;49.468;11.200;2023-11-21T10:35:39;5.03;;;3.87;;
8007;SDS011;4049;49.468;11.200;2023-11-21T10:38:14;6.27;;;3.77;;
8007;SDS011;4049;49.468;11.200;2023-11-21T10:40:41;5.33;;;3.97;;
8007;SDS011;4049;49.468;11.200;2023-11-21T10:43:11;4.50;;;3.70;;
8007;SDS011;4049;49.468;11.200;2023-11-21T10:45:40;4.73;;;3.77;;
8007;SDS011;4049;49.468;11.200;2023-11-21T10:48:09;5.43;;;3.97;;
8007;SDS011;4049;49.468;11.200;2023-11-21T10:50:40;6.67;;;3.90;;
8007;SDS011;4049;49.468;11.200;2023-11-21T10:53:08;6.60;;;4.10;;
8007;SDS011;4049;49.468;11.200;2023-11-21T10:55:36;7.20;;;4.33;;
8007;SDS011;4049;49.468;11.200;2023-11-21T10:58:04;6.30;;;3.97;;
8007;SDS011;4049;49.468;11.200;2023-11-21T11:00:31;4.80;;;3.60;;
8007;SDS011;4049;49.468;11.200;2023-11-21T11:02:59;3.83;;;2.80;;
8007;SDS011;4049;49.468;11.200;2023-11-21T11:05:29;4.00;;;2.87;;
8007;SDS011;4049;49.468;11.200;2023-11-21T11:07:58;4.47;;;3.00;;
8007;SDS011;4049;49.468;11.200;2023-11-21T11:10:28;5.93;;;3.20;;
8007;SDS011;4049;49.468;11.200;2023-11-21T11:12:55;3.40;;;2.43;;
8007;SDS011;4049;49.468;11.200;2023-11-21T11:15:25;3.73;;;2.50;;
8007;SDS011;4049;49.468;11.200;2023-11-21T11:17:53;2.77;;;2.03;;
8007;SDS011;4049;49.468;11.200;2023-11-21T11:20:23;2.20;;;2.00;;
8007;SDS011;4049;49.468;11.200;2023-11-21T11:22:57;2.10;;;1.90;;
8007;SDS011;4049;49.468;11.200;2023-11-21T11:25:40;3.07;;;1.83;;
8007;SDS011;4049;49.468;11.200;2023-11-21T11:28:20;6.07;;;2.00;;
8007;SDS011;4049;49.468;11.200;2023-11-21T11:30:52;2.63;;;2.40;;
8007;SDS011;4049;49.468;11.200;2023-11-21T11:33:31;4.23;;;2.07;;
8007;SDS011;4049;49.468;11.200;2023-11-21T11:36:06;2.83;;;2.10;;
8007;SDS011;4049;49.468;11.200;2023-11-21T11:38:38;2.87;;;2.23;;
8007;SDS011;4049;49.468;11.200;2023-11-21T11:41:11;2.20;;;1.93;;
8007;SDS011;4049;49.468;11.200;2023-11-21T11:43:38;2.83;;;2.20;;
8007;SDS011;4049;49.468;11.200;2023-11-21T11:46:09;2.50;;;2.20;;
8007;SDS011;4049;49.468;11.200;2023-11-21T11:48:38;2.63;;;2.13;;
8007;SDS011;4049;49.468;11.200;2023-11-21T11:51:10;3.50;;;2.60;;
8007;SDS011;4049;49.468;11.200;2023-11-21T11:53:40;4.40;;;2.27;;
8007;SDS011;4049;49.468;11.200;2023-11-21T11:56:24;2.23;;;2.03;;
8007;SDS011;4049;49.468;11.200;2023-11-21T11:58:53;3.43;;;2.53;;
8007;SDS011;4049;49.468;11.200;2023-11-21T12:01:21;4.70;;;2.37;;
8007;SDS011;4049;49.468;11.200;2023-11-21T12:07:03;4.33;;;2.73;;
8007;SDS011;4049;49.468;11.200;2023-11-21T12:09:33;4.00;;;2.30;;
8007;SDS011;4049;49.468;11.200;2023-11-21T12:12:00;3.37;;;2.40;;
8007;SDS011;4049;49.468;11.200;2023-11-21T12:14:28;3.87;;;2.20;;
8007;SDS011;4049;49.468;11.200;2023-11-21T12:16:57;2.63;;;2.43;;
8007;SDS011;4049;49.468;11.200;2023-11-21T12:19:24;3.83;;;2.67;;
8007;SDS011;4049;49.468;11.200;2023-11-21T12:21:51;3.37;;;2.50;;
8007;SDS011;4049;49.468;11.200;2023-11-21T12:24:20;4.17;;;2.50;;
8007;SDS011;4049;49.468;11.200;2023-11-21T12:26:50;4.73;;;2.77;;
8007;SDS011;4049;49.468;11.200;2023-11-21T12:29:17;3.00;;;2.50;;
8007;SDS011;4049;49.468;11.200;2023-11-21T12:31:44;5.10;;;2.60;;
8007;SDS011;4049;49.468;11.200;2023-11-21T12:34:12;3.53;;;2.50;;
8007;SDS011;4049;49.468;11.200;2023-11-21T12:36:39;3.80;;;3.03;;
8007;SDS011;4049;49.468;11.200;2023-11-21T12:39:05;4.40;;;2.90;;
8007;SDS011;4049;49.468;11.200;2023-11-21T12:41:34;3.83;;;2.40;;
8007;SDS011;4049;49.468;11.200;2023-11-21T12:44:02;5.60;;;2.90;;
8007;SDS011;4049;49.468;11.200;2023-11-21T12:46:29;3.37;;;2.67;;
8007;SDS011;4049;49.468;11.200;2023-11-21T12:48:59;3.60;;;2.47;;
8007;SDS011;4049;49.468;11.200;2023-11-21T12:51:30;3.27;;;2.13;;
8007;SDS011;4049;49.468;11.200;2023-11-21T12:53:58;3.33;;;2.67;;
8007;SDS011;4049;49.468;11.200;2023-11-21T12:56:26;3.60;;;2.73;;
8007;SDS011;4049;49.468;11.200;2023-11-21T12:58:53;4.33;;;2.53;;
8007;SDS011;4049;49.468;11.200;2023-11-21T13:01:26;3.33;;;2.03;;
8007;SDS011;4049;49.468;11.200;2023-11-21T13:03:55;3.47;;;2.63;;
8007;SDS011;4049;49.468;11.200;2023-11-21T13:06:23;2.73;;;2.40;;
8007;SDS011;4049;49.468;11.200;2023-11-21T13:08:51;2.83;;;2.27;;
8007;SDS011;4049;49.468;11.200;2023-11-21T13:11:19;3.07;;;2.10;;
8007;SDS011;4049;49.468;11.200;2023-11-21T13:13:45;3.73;;;2.23;;
8007;SDS011;4049;49.468;11.200;2023-11-21T13:16:12;3.13;;;2.40;;
8007;SDS011;4049;49.468;11.200;2023-11-21T13:18:41;4.10;;;2.40;;
8007;SDS011;4049;49.468;11.200;2023-11-21T13:21:09;3.73;;;2.30;;
8007;SDS011;4049;49.468;11.200;2023-11-21T13:23:38;3.47;;;2.30;;
8007;SDS011;4049;49.468;11.200;2023-11-21T13:26:06;2.80;;;2.50;;
8007;SDS011;4049;49.468;11.200;2023-11-21T13:28:33;2.80;;;2.40;;
8007;SDS011;4049;49.468;11.200;2023-11-21T13:31:02;3.40;;;2.50;;
8007;SDS011;4049;49.468;11.200;2023-11-21T13:33:34;3.13;;;2.30;;
8007;SDS011;4049;49.468;11.200;2023-11-21T13:36:04;2.60;;;2.40;;
8007;SDS011;4049;49.468;11.200;2023-11-21T13:38:33;2.97;;;2.10;;
8007;SDS011;4049;49.468;11.200;2023-11-21T13:41:01;3.97;;;2.37;;
8007;SDS011;4049;49.468;11.200;2023-11-21T13:43:32;5.63;;;2.50;;
8007;SDS011;4049;49.468;11.200;2023-11-21T13:45:59;2.93;;;2.40;;
8007;SDS011;4049;49.468;11.200;2023-11-21T13:48:29;4.07;;;2.63;;
8007;SDS011;4049;49.468;11.200;2023-11-21T13:51:07;2.90;;;2.30;;
8007;SDS011;4049;49.468;11.200;2023-11-21T13:53:41;3.07;;;2.13;;
8007;SDS011;4049;49.468;11.200;2023-11-21T13:56:08;3.33;;;2.13;;
8007;SDS011;4049;49.468;11.200;2023-11-21T13:58:36;3.00;;;2.20;;
8007;SDS011;4049;49.468;11.200;2023-11-21T14:01:09;2.60;;;1.90;;
8007;SDS011;4049;49.468;11.200;2023-11-21T14:03:50;3.13;;;2.07;;
8007;SDS011;4049;49.468;11.200;2023-11-21T14:06:24;3.07;;;1.90;;
8007;SDS011;4049;49.468;11.200;2023-11-21T14:08:59;2.60;;;2.40;;
8007;SDS011;4049;49.468;11.200;2023-11-21T14:11:30;2.23;;;1.83;;
8007;SDS011;4049;49.468;11.200;2023-11-21T14:13:57;3.37;;;1.80;;
8007;SDS011;4049;49.468;11.200;2023-11-21T14:16:24;1.93;;;1.70;;
8007;SDS011;4049;49.468;11.200;2023-11-21T14:18:52;2.57;;;2.00;;
8007;SDS011;4049;49.468;11.200;2023-11-21T14:21:27;4.00;;;2.10;;
8007;SDS011;4049;49.468;11.200;2023-11-21T14:23:54;3.77;;;1.97;;
8007;SDS011;4049;49.468;11.200;2023-11-21T14:26:21;3.30;;;2.20;;
8007;SDS011;4049;49.468;11.200;2023-11-21T14:28:49;2.17;;;1.87;;
8007;SDS011;4049;49.468;11.200;2023-11-21T14:31:17;2.87;;;2.20;;
8007;SDS011;4049;49.468;11.200;2023-11-21T14:33:44;3.87;;;2.60;;
8007;SDS011;4049;49.468;11.200;2023-11-21T14:36:12;4.37;;;2.77;;
8007;SDS011;4049;49.468;11.200;2023-11-21T14:38:43;3.23;;;2.33;;
8007;SDS011;4049;49.468;11.200;2023-11-21T14:41:10;2.90;;;2.50;;
8007;SDS011;4049;49.468;11.200;2023-11-21T14:43:39;3.63;;;2.30;;
8007;SDS011;4049;49.468;11.200;2023-11-21T14:46:06;5.30;;;2.50;;
8007;SDS011;4049;49.468;11.200;2023-11-21T14:48:39;3.10;;;2.40;;
8007;SDS011;4049;49.468;11.200;2023-11-21T14:51:07;3.73;;;2.30;;
8007;SDS011;4049;49.468;11.200;2023-11-21T14:53:57;5.10;;;2.70;;
8007;SDS011;4049;49.468;11.200;2023-11-21T14:56:31;4.47;;;2.50;;
8007;SDS011;4049;49.468;11.200;2023-11-21T14:58:59;4.13;;;2.70;;
8007;SDS011;4049;49.468;11.200;2023-11-21T15:01:31;4.93;;;2.73;;
8007;SDS011;4049;49.468;11.200;2023-11-21T15:04:09;6.33;;;2.40;;
8007;SDS011;4049;49.468;11.200;2023-11-21T15:06:46;3.77;;;2.50;;
8007;SDS011;4049;49.468;11.200;2023-11-21T15:09:14;5.93;;;2.60;;
8007;SDS011;4049;49.468;11.200;2023-11-21T15:12:01;3.43;;;2.57;;
8007;SDS011;4049;49.468;11.200;2023-11-21T15:14:38;3.20;;;2.67;;